EGSS/STN METAR and TAF weather

Enter ICAO airport designator
Station Type Date Time Source
EGSS METAR 2019/10/23 13:20 UTC NOAA

EGSS 231320Z AUTO 10008G18KT 060V190 9999 BKN015 14/11 Q1011


Station Type Date Time Source
EGSS Decoded METAR 2019/10/23 13:20 UTC NOAA

Stansted Airport, United Kingdom (EGSS) 51-53N 000-14E 0M
Oct 23, 2019 - 09:20 AM EDT / 2019.10.23 1320 UTC
Wind: from the E (100 degrees) at 9 MPH (8 KT) gusting to 21 MPH (18 KT) (direction variable):0
Visibility: greater than 7 mile(s):0
Sky conditions: mostly cloudy
Temperature: 57 F (14 C)
Dew Point: 51 F (11 C)
Relative Humidity: 82%
Pressure (altimeter): 29.85 in. Hg (1011 hPa)
ob: EGSS 231320Z AUTO 10008G18KT 060V190 9999 BKN015 14/11 Q1011
cycle: 13

Station Type Date Time Source
EGSS TAF 2019/10/23 12:09 UTC NOAA

TAF EGSS 231058Z 2312/2418 09005KT 9999 FEW012 PROB30
TEMPO 2312/2315 BKN012
TEMPO 2315/2317 8000 RA BKN009
BECMG 2317/2320 3000 -DZ BR BKN003
TEMPO 2322/2409 0300 FG BKN001
BECMG 2409/2412 9999 NSW SCT008
TEMPO 2409/2412 RA PROB40
TEMPO 2409/2413 +RA
TEMPO 2412/2418 4000 RADZ BKN007
BECMG 2415/2418 23010KT PROB30
TEMPO 2416/2418 BKN004

Example: see airport list